createdAt,value
2022-11-19T06:02:40.279Z,100953.84
2022-11-19T06:08:01.247Z,100946.38
2022-11-19T06:13:22.223Z,100935.28
2022-11-19T06:18:43.050Z,100938.03
2022-11-19T06:24:04.081Z,100943.69
2022-11-19T06:29:25.692Z,100952.16
2022-11-19T06:34:46.774Z,100960.78
2022-11-19T06:40:08.524Z,100936.97
2022-11-19T06:45:29.301Z,100952.41
2022-11-19T06:50:50.613Z,100951.75
2022-11-19T06:56:11.644Z,100931.38
2022-11-19T07:01:32.571Z,100946.66
2022-11-19T07:06:53.267Z,100941.19
2022-11-19T07:12:14.249Z,100932.53
2022-11-19T07:17:35.612Z,100923.28
2022-11-19T07:22:59.084Z,100921.22
2022-11-19T07:28:20.761Z,100915.16
2022-11-19T07:33:41.683Z,100906.63
2022-11-19T07:39:04.337Z,100907.75
2022-11-19T07:44:25.197Z,100895.81
2022-11-19T07:49:45.914Z,100898.50
2022-11-19T07:55:07.457Z,100893.09
2022-11-19T08:00:28.513Z,100901.00
2022-11-19T08:05:49.536Z,100884.50
2022-11-19T08:11:12.756Z,100891.28
2022-11-19T08:16:52.245Z,100892.34
2022-11-19T08:22:13.541Z,100885.91
2022-11-19T08:27:34.863Z,100869.94
2022-11-19T08:32:55.730Z,100864.94
2022-11-19T08:38:16.584Z,100867.25
2022-11-19T08:43:37.532Z,100867.44
2022-11-19T08:48:58.803Z,100867.25
2022-11-19T08:54:19.846Z,100851.81
2022-11-19T08:59:41.226Z,100853.94
2022-11-19T09:05:02.302Z,100851.25
2022-11-19T09:10:23.327Z,100842.78
2022-11-19T09:15:44.169Z,100845.88
2022-11-19T09:21:06.046Z,100841.50
2022-11-19T09:26:26.696Z,100843.13
2022-11-19T09:31:47.601Z,100833.63
2022-11-19T09:37:08.986Z,100837.09
2022-11-19T09:42:42.941Z,100837.13
2022-11-19T09:48:17.130Z,100838.22
2022-11-19T09:53:57.444Z,100838.91
2022-11-19T09:59:39.140Z,100828.25
2022-11-19T10:04:59.852Z,100827.00
2022-11-19T10:10:42.311Z,100816.69
2022-11-19T10:16:19.879Z,100819.16
2022-11-19T10:21:49.778Z,100814.28
2022-11-19T10:27:24.606Z,100804.84
2022-11-19T10:33:12.879Z,100813.94
2022-11-19T10:38:40.091Z,100799.94
2022-11-19T10:44:39.947Z,100801.72
2022-11-19T10:50:01.012Z,100787.31
2022-11-19T10:55:44.159Z,100779.44
2022-11-19T11:01:14.872Z,100775.28
2022-11-19T11:06:58.601Z,100775.88
2022-11-19T11:12:41.109Z,100773.75
2022-11-19T11:18:08.046Z,100763.59
2022-11-19T11:23:30.302Z,100751.53
2022-11-19T11:28:58.091Z,100749.16
2022-11-19T11:34:31.474Z,100752.03
2022-11-19T11:39:58.023Z,100746.47
2022-11-19T11:45:36.296Z,100748.13
2022-11-19T11:50:57.425Z,100748.56
2022-11-19T11:56:21.388Z,100753.28
2022-11-19T12:01:43.055Z,100745.56
2022-11-19T12:08:01.382Z,100741.16
2022-11-19T12:13:47.410Z,100726.72
2022-11-19T12:19:41.288Z,100726.50
2022-11-19T12:25:31.960Z,100725.34
2022-11-19T12:31:31.484Z,100721.97
2022-11-19T12:36:56.737Z,100724.66
2022-11-19T12:42:27.141Z,100720.41
2022-11-19T12:48:06.414Z,100720.56
2022-11-19T12:53:43.216Z,100719.13
2022-11-19T12:59:31.728Z,100717.03
2022-11-19T13:04:57.895Z,100729.53
2022-11-19T13:10:24.495Z,100718.69
2022-11-19T13:15:58.858Z,100719.56
2022-11-19T13:22:04.858Z,100707.72
2022-11-19T13:27:28.453Z,100699.06
2022-11-19T13:33:17.948Z,100706.50
2022-11-19T13:38:50.558Z,100695.66
2022-11-19T13:44:30.108Z,100700.88
2022-11-19T13:50:11.592Z,100697.63
2022-11-19T13:55:36.648Z,100690.34
2022-11-19T14:01:26.808Z,100693.75
2022-11-19T14:07:22.916Z,100692.56
2022-11-19T14:13:05.079Z,100691.38
2022-11-19T14:19:01.054Z,100691.06
2022-11-19T14:24:43.629Z,100680.81
2022-11-19T14:30:12.047Z,100698.19
2022-11-19T14:35:36.212Z,100692.69
2022-11-19T14:41:17.760Z,100698.31
2022-11-19T14:46:44.973Z,100693.09
2022-11-19T14:52:20.439Z,100692.66
2022-11-19T14:57:42.875Z,100686.41
2022-11-19T15:03:07.638Z,100685.38
2022-11-19T15:08:43.087Z,100684.31
2022-11-19T15:14:28.705Z,100690.84
2022-11-19T15:20:28.633Z,100681.03
2022-11-19T15:26:15.720Z,100682.41
2022-11-19T15:31:45.920Z,100674.50
2022-11-19T15:37:17.133Z,100685.19
2022-11-19T15:42:48.177Z,100678.06
2022-11-19T15:48:35.106Z,100665.91
2022-11-19T15:54:11.491Z,100670.59
2022-11-19T15:59:38.022Z,100678.00
2022-11-19T16:04:58.776Z,100673.41
2022-11-19T16:10:33.548Z,100677.72
2022-11-19T16:16:13.224Z,100671.81
2022-11-19T16:21:38.734Z,100667.47
2022-11-19T16:27:02.598Z,100670.72
2022-11-19T16:32:25.915Z,100670.59
2022-11-19T16:37:51.965Z,100655.47
2022-11-19T16:43:13.740Z,100673.84
2022-11-19T16:48:49.690Z,100653.50
2022-11-19T16:54:11.348Z,100665.22
2022-11-19T16:59:33.859Z,100656.78
2022-11-19T17:04:56.457Z,100668.78
2022-11-19T17:10:30.534Z,100671.63
2022-11-19T17:15:52.184Z,100673.41
2022-11-19T17:21:27.853Z,100662.75
2022-11-19T17:26:49.721Z,100671.22
2022-11-19T17:32:10.906Z,100672.25
2022-11-19T17:37:31.895Z,100670.59
2022-11-19T17:43:11.236Z,100679.38
2022-11-19T17:48:32.062Z,100673.59
2022-11-19T17:53:53.353Z,100679.66
2022-11-19T17:59:14.273Z,100678.94
2022-11-19T18:04:35.146Z,100682.19
2022-11-19T18:09:55.965Z,100686.66
2022-11-19T18:15:19.430Z,100681.47
2022-11-19T18:20:40.208Z,100699.41
2022-11-19T18:26:00.971Z,100687.88
2022-11-19T18:31:26.199Z,100692.47
2022-11-19T18:36:47.679Z,100701.81
2022-11-19T18:42:10.075Z,100695.13
2022-11-19T18:47:31.015Z,100688.47
2022-11-19T18:52:51.954Z,100689.34
2022-11-19T18:58:14.771Z,100690.25
2022-11-19T19:03:35.971Z,100693.81
2022-11-19T19:08:56.687Z,100694.69
2022-11-19T19:14:17.731Z,100687.00
2022-11-19T19:19:39.065Z,100686.09
2022-11-19T19:24:59.950Z,100700.50
2022-11-19T19:30:20.758Z,100703.16
2022-11-19T19:35:41.805Z,100697.22
2022-11-19T19:41:04.657Z,100698.84
2022-11-19T19:46:26.120Z,100709.09
2022-11-19T19:51:47.355Z,100701.38
2022-11-19T19:57:08.070Z,100705.38
2022-11-19T20:02:29.051Z,100719.03
2022-11-19T20:07:49.846Z,100711.88
2022-11-19T20:13:28.730Z,100716.22
2022-11-19T20:18:51.405Z,100721.16
2022-11-19T20:24:13.540Z,100725.47
2022-11-19T20:29:34.457Z,100728.72
2022-11-19T20:34:56.476Z,100729.88
2022-11-19T20:40:17.565Z,100734.31
2022-11-19T20:45:38.560Z,100730.59
2022-11-19T20:50:59.364Z,100731.34
2022-11-19T20:56:20.368Z,100725.97
2022-11-19T21:01:41.749Z,100721.53
2022-11-19T21:07:02.691Z,100728.75
2022-11-19T21:12:24.031Z,100730.25
2022-11-19T21:17:45.220Z,100730.84
2022-11-19T21:23:05.850Z,100730.66
2022-11-19T21:28:26.756Z,100730.50
2022-11-19T21:33:47.694Z,100723.69
2022-11-19T21:39:10.115Z,100721.19
2022-11-19T21:44:30.927Z,100733.63
2022-11-19T21:49:53.534Z,100729.47
2022-11-19T21:55:14.462Z,100719.38
2022-11-19T22:00:35.250Z,100726.38
2022-11-19T22:06:03.235Z,100720.44
2022-11-19T22:11:30.059Z,100713.03
2022-11-19T22:16:51.856Z,100720.59
2022-11-19T22:22:12.918Z,100719.88
2022-11-19T22:27:33.689Z,100712.88
2022-11-19T22:32:54.651Z,100710.50
2022-11-19T22:38:15.713Z,100700.41
